createdAt,value
2023-05-22T00:02:09.241Z,14.40
2023-05-22T00:04:36.421Z,14.40
2023-05-22T00:07:03.559Z,14.30
2023-05-22T00:09:30.642Z,14.30
2023-05-22T00:11:59.105Z,14.30
2023-05-22T00:14:26.175Z,14.30
2023-05-22T00:16:53.318Z,14.20
2023-05-22T00:19:20.435Z,14.20
2023-05-22T00:21:47.507Z,14.20
2023-05-22T00:24:14.563Z,14.30
2023-05-22T00:26:41.509Z,14.20
2023-05-22T00:29:09.894Z,14.20
2023-05-22T00:31:37.276Z,14.20
2023-05-22T00:34:04.341Z,14.20
2023-05-22T00:36:31.403Z,14.40
2023-05-22T00:38:58.520Z,14.30
2023-05-22T00:41:25.569Z,14.30
2023-05-22T00:43:52.683Z,14.10
2023-05-22T00:46:21.450Z,14.10
2023-05-22T00:48:48.654Z,14.10
2023-05-22T00:51:15.887Z,14.10
2023-05-22T00:53:44.093Z,14.30
2023-05-22T00:56:11.169Z,14.20
2023-05-22T00:58:38.350Z,14.10
2023-05-22T01:01:05.440Z,14.20
2023-05-22T01:03:34.085Z,14.30
2023-05-22T01:06:01.085Z,14.30
2023-05-22T01:08:28.145Z,14.20
2023-05-22T01:11:01.678Z,14.10
2023-05-22T01:13:34.404Z,14.00
2023-05-22T01:16:13.125Z,13.90
2023-05-22T01:18:48.264Z,13.90
2023-05-22T01:21:24.103Z,14.10
2023-05-22T01:24:25.270Z,14.10
2023-05-22T01:27:21.727Z,14.20
2023-05-22T01:30:03.300Z,14.10
2023-05-22T01:32:32.536Z,13.90
2023-05-22T01:35:02.398Z,13.90
2023-05-22T01:37:30.577Z,13.80
2023-05-22T01:39:59.092Z,13.90
2023-05-22T01:42:26.419Z,13.90
2023-05-22T01:44:53.776Z,13.90
2023-05-22T01:47:20.875Z,13.80
2023-05-22T01:49:49.517Z,13.90
2023-05-22T01:52:22.797Z,13.90
2023-05-22T01:54:53.381Z,13.70
2023-05-22T01:57:26.380Z,13.70
2023-05-22T01:59:58.766Z,13.50
2023-05-22T02:02:27.808Z,13.60
2023-05-22T02:05:00.254Z,13.80
2023-05-22T02:07:28.932Z,13.70
2023-05-22T02:09:57.760Z,13.80
2023-05-22T02:12:25.470Z,13.80
2023-05-22T02:14:52.909Z,13.90
2023-05-22T02:17:20.042Z,13.90
2023-05-22T02:19:47.173Z,13.90
2023-05-22T02:22:15.601Z,13.80
2023-05-22T02:24:46.323Z,13.80
2023-05-22T02:27:13.492Z,13.70
2023-05-22T02:29:40.788Z,13.70
2023-05-22T02:32:08.523Z,13.80
2023-05-22T02:34:35.559Z,13.80
2023-05-22T02:37:02.876Z,13.70
2023-05-22T02:39:31.234Z,13.90
2023-05-22T02:41:58.461Z,13.90
2023-05-22T02:44:25.449Z,13.80
2023-05-22T02:46:52.487Z,13.80
2023-05-22T02:49:19.610Z,13.70
2023-05-22T02:51:46.621Z,13.70
2023-05-22T02:54:15.190Z,13.70
2023-05-22T02:56:43.938Z,13.70
2023-05-22T02:59:10.944Z,13.70
2023-05-22T03:01:37.991Z,13.50
2023-05-22T03:04:05.424Z,13.40
2023-05-22T03:06:32.475Z,13.30
2023-05-22T03:08:59.443Z,13.40
2023-05-22T03:11:26.421Z,13.40
2023-05-22T03:13:54.837Z,13.50
2023-05-22T03:16:21.873Z,13.40
2023-05-22T03:18:50.862Z,13.40
2023-05-22T03:21:17.907Z,13.60
2023-05-22T03:23:45.193Z,13.50
2023-05-22T03:26:12.326Z,13.50
2023-05-22T03:28:39.436Z,13.40
2023-05-22T03:31:07.853Z,13.50
2023-05-22T03:33:34.913Z,13.30
2023-05-22T03:36:01.925Z,13.40
2023-05-22T03:38:28.929Z,13.40
2023-05-22T03:40:55.981Z,13.40
2023-05-22T03:43:23.021Z,13.30
2023-05-22T03:45:50.104Z,13.30
2023-05-22T03:48:18.778Z,13.30
2023-05-22T03:50:45.836Z,13.40
2023-05-22T03:53:12.861Z,13.50
2023-05-22T03:55:39.983Z,13.50
2023-05-22T03:58:07.320Z,13.60
2023-05-22T04:00:34.461Z,13.60
2023-05-22T04:03:01.917Z,13.70
2023-05-22T04:05:30.687Z,13.70
2023-05-22T04:07:57.892Z,13.80
2023-05-22T04:10:24.958Z,13.90
2023-05-22T04:12:51.957Z,13.80
2023-05-22T04:15:18.937Z,13.80
2023-05-22T04:17:46.066Z,13.70
2023-05-22T04:20:13.657Z,13.60
2023-05-22T04:22:42.059Z,13.60
2023-05-22T04:25:09.595Z,13.70
2023-05-22T04:27:36.567Z,13.80
2023-05-22T04:30:04.122Z,13.90
2023-05-22T04:32:31.204Z,13.80
2023-05-22T04:34:58.208Z,13.70
2023-05-22T04:37:25.233Z,13.60
2023-05-22T04:39:53.702Z,13.60
2023-05-22T04:42:20.859Z,13.60
2023-05-22T04:44:47.846Z,13.60
2023-05-22T04:47:14.867Z,13.60
2023-05-22T04:49:42.089Z,13.60
2023-05-22T04:52:09.136Z,13.80
2023-05-22T04:54:36.144Z,13.80
2023-05-22T04:57:04.920Z,13.70
2023-05-22T04:59:31.967Z,13.90
2023-05-22T05:01:59.052Z,13.80
2023-05-22T05:04:26.239Z,13.70
2023-05-22T05:06:53.213Z,13.60
2023-05-22T05:09:20.219Z,13.80
2023-05-22T05:11:47.222Z,13.80
2023-05-22T05:14:15.782Z,13.90
2023-05-22T05:16:43.114Z,13.90
2023-05-22T05:19:10.282Z,13.70
2023-05-22T05:21:37.243Z,13.70
2023-05-22T05:24:05.637Z,13.60
2023-05-22T05:26:32.935Z,13.60
2023-05-22T05:29:00.432Z,13.60
2023-05-22T05:31:30.094Z,13.60
2023-05-22T05:33:57.412Z,13.70
2023-05-22T05:36:24.912Z,13.80
2023-05-22T05:38:55.898Z,13.80
2023-05-22T05:41:22.895Z,13.70
2023-05-22T05:43:49.890Z,13.80
2023-05-22T05:46:17.235Z,13.90
2023-05-22T05:48:46.009Z,14.00
2023-05-22T05:51:13.118Z,14.00
2023-05-22T05:53:40.153Z,14.00
2023-05-22T05:56:08.102Z,13.80
2023-05-22T05:58:35.118Z,13.90
2023-05-22T06:01:02.340Z,14.00
2023-05-22T06:03:29.489Z,14.00
2023-05-22T06:05:58.143Z,14.10
2023-05-22T06:08:25.401Z,14.10
2023-05-22T06:10:52.423Z,14.20
2023-05-22T06:13:22.449Z,14.30
2023-05-22T06:15:49.477Z,14.40
2023-05-22T06:18:16.490Z,14.20
2023-05-22T06:20:43.688Z,13.90
2023-05-22T06:23:12.286Z,13.90
2023-05-22T06:25:39.287Z,13.80
2023-05-22T06:28:06.299Z,13.80
2023-05-22T06:30:43.567Z,13.90
2023-05-22T06:33:10.861Z,14.00
2023-05-22T06:35:37.967Z,14.10
2023-05-22T06:38:04.947Z,14.20
2023-05-22T06:40:33.372Z,14.30
2023-05-22T06:43:01.448Z,14.20
2023-05-22T06:45:28.704Z,14.30
2023-05-22T06:47:55.822Z,14.20
2023-05-22T06:50:22.902Z,14.20
2023-05-22T06:52:50.082Z,14.30
2023-05-22T06:55:17.287Z,14.40
2023-05-22T06:57:45.774Z,14.50
2023-05-22T07:00:13.609Z,14.40
2023-05-22T07:02:40.838Z,14.50
2023-05-22T07:05:08.270Z,14.30
2023-05-22T07:07:35.281Z,14.20
2023-05-22T07:10:02.484Z,14.20
2023-05-22T07:12:29.814Z,14.10
2023-05-22T07:14:58.219Z,14.00
2023-05-22T07:17:25.313Z,14.10
2023-05-22T07:19:52.354Z,14.20
2023-05-22T07:22:19.358Z,14.10
2023-05-22T07:24:46.333Z,14.00
2023-05-22T07:27:13.566Z,14.00
2023-05-22T07:29:40.523Z,14.20
2023-05-22T07:32:09.033Z,14.30
2023-05-22T07:34:36.050Z,14.50
2023-05-22T07:37:07.825Z,14.60
2023-05-22T07:39:34.866Z,14.50
2023-05-22T07:42:02.114Z,14.50
2023-05-22T07:44:29.352Z,14.40
2023-05-22T07:46:56.459Z,14.60
2023-05-22T07:49:25.050Z,14.60
2023-05-22T07:51:52.084Z,14.70
2023-05-22T07:54:19.047Z,14.60
2023-05-22T07:56:46.089Z,14.70
2023-05-22T07:59:13.087Z,14.70
2023-05-22T08:01:40.834Z,14.90
2023-05-22T08:04:08.198Z,15.00
2023-05-22T08:06:36.964Z,14.90
2023-05-22T08:09:04.117Z,15.00
2023-05-22T08:11:31.138Z,15.20
2023-05-22T08:13:58.237Z,15.30
2023-05-22T08:16:25.445Z,15.40
2023-05-22T08:18:52.683Z,15.50
2023-05-22T08:21:19.864Z,15.70
2023-05-22T08:23:48.200Z,15.70
2023-05-22T08:26:15.900Z,15.60
2023-05-22T08:28:42.946Z,15.60
2023-05-22T08:31:10.395Z,15.60
2023-05-22T08:33:37.504Z,15.40
2023-05-22T08:36:05.042Z,15.50
2023-05-22T08:38:32.064Z,15.40
2023-05-22T08:41:00.466Z,15.40
2023-05-22T08:43:27.953Z,15.40
2023-05-22T08:46:00.172Z,15.30
2023-05-22T08:48:30.453Z,15.40
2023-05-22T08:50:58.790Z,15.60
2023-05-22T08:53:29.247Z,15.60
2023-05-22T08:55:56.739Z,15.60
2023-05-22T08:58:26.086Z,15.60
2023-05-22T09:00:53.804Z,15.60
2023-05-22T09:03:21.927Z,15.60
2023-05-22T09:05:49.054Z,15.60
2023-05-22T09:08:20.836Z,15.40
2023-05-22T09:10:48.660Z,15.40
2023-05-22T09:13:26.654Z,15.30
2023-05-22T09:15:54.825Z,15.10
2023-05-22T09:18:26.625Z,15.20
2023-05-22T09:20:53.678Z,15.10
2023-05-22T09:23:20.799Z,15.30
2023-05-22T09:25:47.975Z,15.50
2023-05-22T09:28:14.951Z,15.50
2023-05-22T09:30:43.465Z,15.50
2023-05-22T09:33:13.452Z,15.40
2023-05-22T09:35:40.629Z,15.70
2023-05-22T09:38:10.180Z,16.00
2023-05-22T09:40:38.780Z,16.00
2023-05-22T09:43:07.661Z,15.70
2023-05-22T09:45:35.492Z,15.90
2023-05-22T09:48:04.358Z,15.90
2023-05-22T09:50:31.753Z,15.80
2023-05-22T09:53:01.368Z,15.80
2023-05-22T09:55:28.813Z,16.00
2023-05-22T09:57:56.581Z,15.90
2023-05-22T10:00:25.150Z,16.10
2023-05-22T10:02:57.677Z,16.30
2023-05-22T10:05:30.412Z,16.40
2023-05-22T10:08:05.242Z,16.60
2023-05-22T10:10:33.018Z,16.50
2023-05-22T10:13:03.255Z,16.60
2023-05-22T10:15:30.559Z,16.50
2023-05-22T10:17:58.899Z,16.40
2023-05-22T10:20:27.921Z,16.20
2023-05-22T10:22:55.591Z,16.30
2023-05-22T10:25:22.877Z,16.30
2023-05-22T10:27:52.595Z,16.30
2023-05-22T10:30:26.757Z,16.40
2023-05-22T10:33:00.601Z,16.50
2023-05-22T10:35:36.188Z,16.60
2023-05-22T10:38:21.436Z,16.50
2023-05-22T10:40:48.876Z,16.50
2023-05-22T10:43:16.102Z,16.80
2023-05-22T10:45:46.561Z,16.80
2023-05-22T10:48:13.577Z,16.60
2023-05-22T10:50:51.158Z,16.60
2023-05-22T10:53:23.276Z,16.70
2023-05-22T10:55:51.056Z,16.60
2023-05-22T10:58:18.773Z,16.40
2023-05-22T11:00:45.808Z,16.50
2023-05-22T11:03:18.189Z,16.70
2023-05-22T11:05:53.016Z,16.80
2023-05-22T11:08:36.508Z,16.70
2023-05-22T11:11:13.062Z,16.70
2023-05-22T11:13:40.405Z,16.70
2023-05-22T11:16:09.719Z,17.10
2023-05-22T11:18:37.005Z,17.50
2023-05-22T11:21:09.229Z,17.20
2023-05-22T11:23:38.053Z,17.10
2023-05-22T11:26:21.716Z,17.20
2023-05-22T11:28:50.318Z,17.00
2023-05-22T11:31:18.055Z,17.00
2023-05-22T11:33:46.864Z,17.10
2023-05-22T11:36:16.096Z,17.20
2023-05-22T11:38:43.096Z,17.10
2023-05-22T11:41:10.377Z,17.40
2023-05-22T11:43:37.699Z,17.30
2023-05-22T11:46:08.869Z,17.00
2023-05-22T11:48:36.403Z,16.90
2023-05-22T11:51:03.704Z,16.90
2023-05-22T11:53:34.330Z,16.90
2023-05-22T11:56:05.201Z,16.90
2023-05-22T11:58:32.707Z,17.10
2023-05-22T12:01:01.479Z,17.20
2023-05-22T12:03:29.676Z,17.20
2023-05-22T12:05:57.518Z,17.10
2023-05-22T12:08:25.568Z,17.00
2023-05-22T12:10:54.693Z,17.10
2023-05-22T12:13:26.415Z,17.20
2023-05-22T12:15:54.404Z,17.40
2023-05-22T12:18:21.652Z,17.50
2023-05-22T12:20:52.212Z,17.30
2023-05-22T12:23:23.482Z,17.30
2023-05-22T12:25:58.808Z,17.30
2023-05-22T12:28:26.082Z,17.20
2023-05-22T12:30:53.840Z,17.10
2023-05-22T12:33:25.473Z,17.20
2023-05-22T12:35:52.825Z,17.40
2023-05-22T12:38:21.508Z,17.40
2023-05-22T12:40:48.816Z,17.60
2023-05-22T12:43:17.278Z,17.70
2023-05-22T12:45:44.429Z,17.80
2023-05-22T12:48:11.496Z,17.80
2023-05-22T12:50:38.758Z,18.00
2023-05-22T12:53:06.219Z,18.00
2023-05-22T12:55:33.298Z,17.90
2023-05-22T12:58:01.070Z,17.80
2023-05-22T13:00:29.533Z,17.70
2023-05-22T13:02:56.896Z,17.80
2023-05-22T13:05:24.023Z,17.90
2023-05-22T13:07:51.245Z,18.00
2023-05-22T13:10:18.380Z,18.10
2023-05-22T13:12:45.443Z,18.40
2023-05-22T13:15:12.772Z,18.50
2023-05-22T13:17:41.398Z,18.30
2023-05-22T13:20:09.666Z,18.20
2023-05-22T13:22:36.894Z,18.20
2023-05-22T13:25:04.417Z,18.00
2023-05-22T13:27:33.543Z,18.00
2023-05-22T13:30:01.084Z,18.00
2023-05-22T13:32:28.159Z,18.00
2023-05-22T13:34:56.549Z,18.00
2023-05-22T13:37:23.782Z,18.10
2023-05-22T13:39:50.958Z,18.00
2023-05-22T13:42:18.107Z,18.20
2023-05-22T13:44:45.248Z,18.20
2023-05-22T13:47:12.585Z,18.30
2023-05-22T13:49:39.664Z,18.40
2023-05-22T13:52:08.130Z,18.40
2023-05-22T13:54:35.125Z,18.60
2023-05-22T13:57:02.207Z,18.70
2023-05-22T13:59:29.265Z,18.90
2023-05-22T14:01:56.297Z,18.70
2023-05-22T14:04:23.601Z,18.70
2023-05-22T14:06:50.617Z,18.60
2023-05-22T14:09:19.487Z,18.60
2023-05-22T14:11:46.880Z,18.40
2023-05-22T14:14:13.904Z,18.50
2023-05-22T14:16:41.239Z,18.40
2023-05-22T14:19:08.521Z,18.20
2023-05-22T14:21:35.732Z,18.30
2023-05-22T14:24:08.895Z,18.40
2023-05-22T14:26:37.260Z,18.40
2023-05-22T14:29:04.445Z,18.10
2023-05-22T14:31:31.502Z,18.30
2023-05-22T14:33:58.581Z,18.50
2023-05-22T14:36:25.565Z,18.30
2023-05-22T14:38:55.843Z,18.20
2023-05-22T14:41:23.281Z,18.20
2023-05-22T14:43:51.997Z,18.20
2023-05-22T14:46:19.126Z,18.20
2023-05-22T14:48:46.175Z,18.20
2023-05-22T14:51:13.167Z,18.40
2023-05-22T16:16:38.292Z,17.40
2023-05-22T16:19:05.457Z,17.50
2023-05-22T16:21:32.443Z,17.70
2023-05-22T16:23:59.605Z,17.80
2023-05-22T16:26:26.547Z,17.70
2023-05-22T16:28:53.504Z,17.60
2023-05-22T16:31:20.504Z,17.60
2023-05-22T16:33:48.885Z,17.70
2023-05-22T16:36:15.882Z,17.70
2023-05-22T16:38:42.897Z,17.70
2023-05-22T16:41:09.933Z,17.80
2023-05-22T16:43:36.949Z,17.90
2023-05-22T16:46:04.148Z,17.70
2023-05-22T16:48:31.228Z,17.90
2023-05-22T16:50:59.636Z,17.80
2023-05-22T16:53:26.730Z,17.80
2023-05-22T16:55:53.671Z,17.70
2023-05-22T16:58:20.596Z,17.70
2023-05-22T17:00:47.932Z,17.70
2023-05-22T17:03:15.111Z,17.50
2023-05-22T17:05:42.479Z,17.50
2023-05-22T17:08:10.996Z,17.50
2023-05-22T17:10:37.937Z,17.60
2023-05-22T17:13:05.022Z,17.60
2023-05-22T17:15:32.078Z,17.70
2023-05-22T17:17:59.237Z,17.70
2023-05-22T17:20:26.381Z,17.60
2023-05-22T17:22:53.376Z,17.50
2023-05-22T17:25:21.853Z,17.60
2023-05-22T17:27:48.974Z,17.50
2023-05-22T17:30:16.108Z,17.50
2023-05-22T17:32:43.192Z,17.60
2023-05-22T17:35:10.232Z,17.40
2023-05-22T17:37:37.206Z,17.50
2023-05-22T17:40:04.851Z,17.40
2023-05-22T17:42:34.197Z,17.40
2023-05-22T17:45:01.190Z,17.40
2023-05-22T17:47:28.159Z,17.40
2023-05-22T17:49:55.206Z,17.40
2023-05-22T17:52:22.266Z,17.40
2023-05-22T17:54:49.223Z,17.50
2023-05-22T17:57:16.276Z,17.40
2023-05-22T17:59:44.713Z,17.50
2023-05-22T18:02:11.682Z,17.40
2023-05-22T18:04:38.604Z,17.50
2023-05-22T18:07:05.901Z,17.40
2023-05-22T18:09:32.921Z,17.40
2023-05-22T18:11:59.925Z,17.30
2023-05-22T18:14:26.950Z,17.30
2023-05-22T18:16:55.392Z,17.30
2023-05-22T18:19:22.383Z,17.20
2023-05-22T18:21:49.437Z,17.30
2023-05-22T18:24:16.383Z,17.40
2023-05-22T18:26:46.136Z,17.30
2023-05-22T18:29:13.123Z,17.30
2023-05-22T18:31:40.311Z,17.50
2023-05-22T18:34:08.665Z,17.50
2023-05-22T18:36:35.722Z,17.50
2023-05-22T18:39:02.752Z,17.60
2023-05-22T18:41:29.676Z,17.50
2023-05-22T18:43:56.636Z,17.40
2023-05-22T18:46:23.638Z,17.40
2023-05-22T18:48:50.688Z,17.20
2023-05-22T18:51:19.064Z,17.10
2023-05-22T18:53:46.229Z,17.10
2023-05-22T18:56:13.334Z,17.00
2023-05-22T18:58:40.639Z,17.00
2023-05-22T19:01:07.858Z,16.90
2023-05-22T19:03:34.874Z,16.90
2023-05-22T19:06:01.889Z,16.90
2023-05-22T19:08:30.353Z,16.90
2023-05-22T19:10:57.765Z,16.80
2023-05-22T19:13:24.809Z,16.70
2023-05-22T19:15:51.904Z,16.80
2023-05-22T19:18:18.954Z,16.70
2023-05-22T19:20:46.079Z,16.60
2023-05-22T19:23:13.072Z,16.50
2023-05-22T19:25:41.463Z,16.40
2023-05-22T19:28:08.475Z,16.30
2023-05-22T19:30:35.554Z,16.30
2023-05-22T19:33:02.718Z,16.30
2023-05-22T19:35:29.759Z,16.10
2023-05-22T19:37:56.773Z,16.00
2023-05-22T19:40:23.825Z,15.90
2023-05-22T19:42:52.309Z,15.90
2023-05-22T19:45:19.295Z,15.90
2023-05-22T19:47:46.434Z,15.80
2023-05-22T19:50:13.405Z,15.80
2023-05-22T19:52:40.350Z,15.80
2023-05-22T19:55:07.830Z,15.70
2023-05-22T19:57:34.839Z,15.70
2023-05-22T20:00:03.670Z,15.60
2023-05-22T20:02:30.687Z,15.60
2023-05-22T20:04:57.685Z,15.60
2023-05-22T20:07:24.624Z,15.60
2023-05-22T20:09:51.578Z,15.50
2023-05-22T20:12:18.683Z,15.50
2023-05-22T20:14:45.787Z,15.40
2023-05-22T20:17:14.120Z,15.40
2023-05-22T20:19:41.080Z,15.40
2023-05-22T20:22:08.028Z,15.50
2023-05-22T20:24:35.022Z,15.50
2023-05-22T20:27:02.048Z,15.50
2023-05-22T20:29:29.083Z,15.60
2023-05-22T20:31:56.251Z,15.50
2023-05-22T20:34:24.689Z,15.50
2023-05-22T20:36:51.696Z,15.60
2023-05-22T20:39:18.731Z,15.50
2023-05-22T20:41:46.658Z,15.50
2023-05-22T20:44:13.587Z,15.50
2023-05-22T20:46:40.561Z,15.30
2023-05-22T20:49:07.770Z,15.30
2023-05-22T20:51:36.109Z,15.40
2023-05-22T20:54:03.191Z,15.40
2023-05-22T20:56:30.246Z,15.40
2023-05-22T20:58:57.214Z,15.20
2023-05-22T21:01:25.039Z,14.90
2023-05-22T21:03:54.365Z,14.90
2023-05-22T21:06:21.361Z,15.00
2023-05-22T21:08:51.381Z,14.90
2023-05-22T21:11:19.487Z,15.00
2023-05-22T21:13:46.500Z,15.10
2023-05-22T21:16:13.551Z,15.10
2023-05-22T21:18:40.536Z,15.10
2023-05-22T21:21:07.505Z,14.90
2023-05-22T21:23:34.639Z,14.70
2023-05-22T21:26:03.243Z,14.60
2023-05-22T21:28:30.297Z,14.70
2023-05-22T21:30:57.319Z,14.80
2023-05-22T21:33:24.292Z,14.70
2023-05-22T21:35:51.265Z,14.60
2023-05-22T21:38:18.266Z,14.70
2023-05-22T21:40:45.228Z,14.80
2023-05-22T21:43:13.545Z,14.80
2023-05-22T21:45:40.841Z,14.80
2023-05-22T21:48:07.872Z,14.80
2023-05-22T21:50:34.914Z,14.80
2023-05-22T21:53:01.954Z,14.70
2023-05-22T21:55:28.961Z,14.40
2023-05-22T21:57:56.021Z,14.50
2023-05-22T22:00:24.621Z,14.50
2023-05-22T22:02:51.677Z,14.60
2023-05-22T22:05:18.708Z,14.70
2023-05-22T22:07:45.957Z,14.80
2023-05-22T22:10:12.960Z,14.70
2023-05-22T22:12:39.926Z,14.70
2023-05-22T22:15:07.939Z,14.80
2023-05-22T22:17:36.289Z,14.60
2023-05-22T22:20:03.550Z,14.60
2023-05-22T22:22:30.577Z,14.50
2023-05-22T22:24:57.526Z,14.50
2023-05-22T22:27:24.578Z,14.60
2023-05-22T22:29:51.590Z,14.50
2023-05-22T22:32:18.896Z,14.40
2023-05-22T22:34:47.251Z,14.30
2023-05-22T22:37:14.317Z,14.30
2023-05-22T22:39:41.364Z,14.40
2023-05-22T22:42:08.406Z,14.40
2023-05-22T22:44:35.392Z,14.30
2023-05-22T22:47:02.563Z,14.30
2023-05-22T22:49:29.594Z,14.40
2023-05-22T22:51:58.038Z,14.50
2023-05-22T22:54:25.130Z,14.40
2023-05-22T22:56:52.387Z,14.40
2023-05-22T22:59:19.422Z,14.50
2023-05-22T23:01:46.427Z,14.50
2023-05-22T23:04:13.660Z,14.60
2023-05-22T23:06:40.777Z,14.50
2023-05-22T23:09:09.321Z,14.40
2023-05-22T23:11:36.429Z,14.60
2023-05-22T23:14:03.879Z,14.70
2023-05-22T23:16:30.910Z,14.50
2023-05-22T23:18:57.929Z,14.20
2023-05-22T23:21:24.994Z,14.10
2023-05-22T23:23:51.941Z,14.10
2023-05-22T23:26:20.320Z,14.00
2023-05-22T23:28:47.322Z,13.80
2023-05-22T23:31:14.526Z,13.70
2023-05-22T23:33:41.598Z,13.70
2023-05-22T23:36:08.609Z,13.80
2023-05-22T23:38:35.579Z,13.90
2023-05-22T23:41:02.521Z,14.00
2023-05-22T23:43:30.930Z,14.20
2023-05-22T23:45:57.874Z,14.30
2023-05-22T23:48:24.883Z,14.30
2023-05-22T23:50:51.881Z,14.20
2023-05-22T23:53:18.865Z,14.10
2023-05-22T23:55:46.184Z,13.80
2023-05-22T23:58:13.183Z,13.80
